sensor_id;sensor_type;location;lat;lon;timestamp;temperature;humidity
51500;DHT22;39101;53.478;6.158;2023-02-11T00:01:51;6.10;99.90
51500;DHT22;39101;53.478;6.158;2023-02-11T00:04:17;6.20;99.90
51500;DHT22;39101;53.478;6.158;2023-02-11T00:06:43;6.20;99.90
51500;DHT22;39101;53.478;6.158;2023-02-11T00:09:09;6.10;99.90
51500;DHT22;39101;53.478;6.158;2023-02-11T00:11:35;6.20;99.90
51500;DHT22;39101;53.478;6.158;2023-02-11T00:14:04;6.20;99.90
51500;DHT22;39101;53.478;6.158;2023-02-11T00:16:30;6.20;99.90
51500;DHT22;39101;53.478;6.158;2023-02-11T00:18:58;6.10;99.90
51500;DHT22;39101;53.478;6.158;2023-02-11T00:21:25;6.20;99.90
51500;DHT22;39101;53.478;6.158;2023-02-11T00:23:52;6.20;99.90
51500;DHT22;39101;53.478;6.158;2023-02-11T00:26:23;6.20;99.90
51500;DHT22;39101;53.478;6.158;2023-02-11T00:28:50;6.20;99.90
51500;DHT22;39101;53.478;6.158;2023-02-11T00:31:18;6.20;99.90
51500;DHT22;39101;53.478;6.158;2023-02-11T00:33:44;6.20;99.90
51500;DHT22;39101;53.478;6.158;2023-02-11T00:36:13;6.30;99.90
51500;DHT22;39101;53.478;6.158;2023-02-11T00:38:42;6.30;99.90
51500;DHT22;39101;53.478;6.158;2023-02-11T00:41:08;6.30;99.90
51500;DHT22;39101;53.478;6.158;2023-02-11T00:43:34;6.30;99.90
51500;DHT22;39101;53.478;6.158;2023-02-11T00:46:00;6.30;99.90
51500;DHT22;39101;53.478;6.158;2023-02-11T00:48:26;6.30;99.90
51500;DHT22;39101;53.478;6.158;2023-02-11T00:50:52;6.40;99.90
51500;DHT22;39101;53.478;6.158;2023-02-11T00:53:17;6.30;99.90
51500;DHT22;39101;53.478;6.158;2023-02-11T00:55:43;6.40;99.90
51500;DHT22;39101;53.478;6.158;2023-02-11T00:58:09;6.40;99.90
51500;DHT22;39101;53.478;6.158;2023-02-11T01:00:34;6.50;99.90
51500;DHT22;39101;53.478;6.158;2023-02-11T01:03:00;6.50;99.90
51500;DHT22;39101;53.478;6.158;2023-02-11T01:05:26;6.40;99.90
51500;DHT22;39101;53.478;6.158;2023-02-11T01:07:52;6.40;99.90
51500;DHT22;39101;53.478;6.158;2023-02-11T01:10:17;6.40;99.90
51500;DHT22;39101;53.478;6.158;2023-02-11T01:12:43;6.40;99.90
51500;DHT22;39101;53.478;6.158;2023-02-11T01:15:12;6.40;99.90
51500;DHT22;39101;53.478;6.158;2023-02-11T01:17:38;6.40;99.90
51500;DHT22;39101;53.478;6.158;2023-02-11T01:20:05;6.40;99.90
51500;DHT22;39101;53.478;6.158;2023-02-11T01:22:32;6.30;99.90
51500;DHT22;39101;53.478;6.158;2023-02-11T01:24:59;6.40;99.90
51500;DHT22;39101;53.478;6.158;2023-02-11T01:27:25;6.40;99.90
51500;DHT22;39101;53.478;6.158;2023-02-11T01:29:50;6.30;99.90
51500;DHT22;39101;53.478;6.158;2023-02-11T01:32:16;6.30;99.90
51500;DHT22;39101;53.478;6.158;2023-02-11T01:34:42;6.20;99.90
51500;DHT22;39101;53.478;6.158;2023-02-11T01:37:07;6.30;99.90
51500;DHT22;39101;53.478;6.158;2023-02-11T01:39:34;6.30;99.90
51500;DHT22;39101;53.478;6.158;2023-02-11T01:42:00;6.30;99.90
51500;DHT22;39101;53.478;6.158;2023-02-11T01:44:36;6.40;99.90
51500;DHT22;39101;53.478;6.158;2023-02-11T01:47:02;6.40;99.90
51500;DHT22;39101;53.478;6.158;2023-02-11T01:49:35;6.30;99.90
51500;DHT22;39101;53.478;6.158;2023-02-11T01:52:08;6.40;99.90
51500;DHT22;39101;53.478;6.158;2023-02-11T01:54:44;6.30;99.90
51500;DHT22;39101;53.478;6.158;2023-02-11T01:57:32;6.50;99.90
51500;DHT22;39101;53.478;6.158;2023-02-11T02:00:29;6.30;99.90
51500;DHT22;39101;53.478;6.158;2023-02-11T02:08:15;6.40;99.90
51500;DHT22;39101;53.478;6.158;2023-02-11T02:10:45;6.30;99.90
51500;DHT22;39101;53.478;6.158;2023-02-11T02:13:11;6.40;99.90
51500;DHT22;39101;53.478;6.158;2023-02-11T02:15:40;6.50;99.90
51500;DHT22;39101;53.478;6.158;2023-02-11T02:21:13;6.40;99.90
51500;DHT22;39101;53.478;6.158;2023-02-11T02:27:14;6.50;99.90
51500;DHT22;39101;53.478;6.158;2023-02-11T02:30:09;6.40;99.90
51500;DHT22;39101;53.478;6.158;2023-02-11T02:32:54;6.40;99.90
51500;DHT22;39101;53.478;6.158;2023-02-11T02:38:30;6.50;99.90
51500;DHT22;39101;53.478;6.158;2023-02-11T02:41:12;6.40;99.90
51500;DHT22;39101;53.478;6.158;2023-02-11T02:43:44;7.10;99.90
51500;DHT22;39101;53.478;6.158;2023-02-11T02:46:14;6.50;99.90
51500;DHT22;39101;53.478;6.158;2023-02-11T02:48:41;6.60;99.90
51500;DHT22;39101;53.478;6.158;2023-02-11T02:56:48;6.90;99.90
51500;DHT22;39101;53.478;6.158;2023-02-11T03:04:54;7.00;99.90
51500;DHT22;39101;53.478;6.158;2023-02-11T03:10:33;7.00;99.90
51500;DHT22;39101;53.478;6.158;2023-02-11T03:13:02;6.90;99.90
51500;DHT22;39101;53.478;6.158;2023-02-11T03:15:33;7.00;99.90
51500;DHT22;39101;53.478;6.158;2023-02-11T03:18:02;6.90;99.90
51500;DHT22;39101;53.478;6.158;2023-02-11T03:20:32;6.90;99.90
51500;DHT22;39101;53.478;6.158;2023-02-11T03:23:22;6.90;99.90
51500;DHT22;39101;53.478;6.158;2023-02-11T03:25:57;6.90;99.90
51500;DHT22;39101;53.478;6.158;2023-02-11T03:30:57;6.90;99.90
51500;DHT22;39101;53.478;6.158;2023-02-11T03:33:30;6.90;99.90
51500;DHT22;39101;53.478;6.158;2023-02-11T03:36:11;6.90;99.90
51500;DHT22;39101;53.478;6.158;2023-02-11T03:38:46;6.90;99.90
51500;DHT22;39101;53.478;6.158;2023-02-11T03:41:14;6.90;99.90
51500;DHT22;39101;53.478;6.158;2023-02-11T03:43:45;6.80;99.90
51500;DHT22;39101;53.478;6.158;2023-02-11T03:46:15;6.80;99.90
51500;DHT22;39101;53.478;6.158;2023-02-11T03:48:46;6.80;99.90
51500;DHT22;39101;53.478;6.158;2023-02-11T03:51:14;6.80;99.90
51500;DHT22;39101;53.478;6.158;2023-02-11T03:53:42;6.90;99.90
51500;DHT22;39101;53.478;6.158;2023-02-11T03:56:14;6.90;99.90
51500;DHT22;39101;53.478;6.158;2023-02-11T03:58:43;7.00;99.90
51500;DHT22;39101;53.478;6.158;2023-02-11T04:01:09;6.90;99.90
51500;DHT22;39101;53.478;6.158;2023-02-11T04:03:35;6.80;99.90
51500;DHT22;39101;53.478;6.158;2023-02-11T04:06:01;6.80;99.90
51500;DHT22;39101;53.478;6.158;2023-02-11T04:08:26;6.90;99.90
51500;DHT22;39101;53.478;6.158;2023-02-11T04:10:52;6.90;99.90
51500;DHT22;39101;53.478;6.158;2023-02-11T04:13:18;6.90;99.90
51500;DHT22;39101;53.478;6.158;2023-02-11T04:15:43;6.90;99.90
51500;DHT22;39101;53.478;6.158;2023-02-11T04:18:09;6.80;99.90
51500;DHT22;39101;53.478;6.158;2023-02-11T04:20:35;6.90;99.90
51500;DHT22;39101;53.478;6.158;2023-02-11T04:23:00;6.90;99.90
51500;DHT22;39101;53.478;6.158;2023-02-11T04:25:26;6.90;99.90
51500;DHT22;39101;53.478;6.158;2023-02-11T04:27:52;6.90;99.90
51500;DHT22;39101;53.478;6.158;2023-02-11T04:30:17;6.90;99.90
51500;DHT22;39101;53.478;6.158;2023-02-11T04:32:43;7.00;99.90
51500;DHT22;39101;53.478;6.158;2023-02-11T04:35:09;7.00;99.90
51500;DHT22;39101;53.478;6.158;2023-02-11T04:37:34;7.00;99.90
51500;DHT22;39101;53.478;6.158;2023-02-11T04:40:00;7.00;99.90
51500;DHT22;39101;53.478;6.158;2023-02-11T04:42:26;7.00;99.90
51500;DHT22;39101;53.478;6.158;2023-02-11T04:44:52;7.10;99.90
51500;DHT22;39101;53.478;6.158;2023-02-11T04:47:17;7.10;99.90
51500;DHT22;39101;53.478;6.158;2023-02-11T04:49:43;7.10;99.90
51500;DHT22;39101;53.478;6.158;2023-02-11T04:52:09;7.10;99.90
51500;DHT22;39101;53.478;6.158;2023-02-11T04:54:36;6.90;99.90
51500;DHT22;39101;53.478;6.158;2023-02-11T04:57:02;6.90;99.90
51500;DHT22;39101;53.478;6.158;2023-02-11T04:59:28;6.80;99.90
51500;DHT22;39101;53.478;6.158;2023-02-11T05:01:54;7.00;99.90
51500;DHT22;39101;53.478;6.158;2023-02-11T05:04:19;6.80;99.90
51500;DHT22;39101;53.478;6.158;2023-02-11T05:06:45;6.90;99.90
51500;DHT22;39101;53.478;6.158;2023-02-11T05:09:12;6.90;99.90
51500;DHT22;39101;53.478;6.158;2023-02-11T05:11:38;6.90;99.90
51500;DHT22;39101;53.478;6.158;2023-02-11T05:14:05;7.00;99.90
51500;DHT22;39101;53.478;6.158;2023-02-11T05:16:31;6.80;99.90
51500;DHT22;39101;53.478;6.158;2023-02-11T05:18:56;6.80;99.90
51500;DHT22;39101;53.478;6.158;2023-02-11T05:21:23;6.80;99.90
51500;DHT22;39101;53.478;6.158;2023-02-11T05:23:49;7.00;99.90
51500;DHT22;39101;53.478;6.158;2023-02-11T05:26:15;6.90;99.90
51500;DHT22;39101;53.478;6.158;2023-02-11T05:28:41;6.90;99.90
51500;DHT22;39101;53.478;6.158;2023-02-11T05:31:08;6.90;99.90
51500;DHT22;39101;53.478;6.158;2023-02-11T05:33:34;6.90;99.90
51500;DHT22;39101;53.478;6.158;2023-02-11T05:36:05;6.90;99.90
51500;DHT22;39101;53.478;6.158;2023-02-11T05:38:33;6.90;99.90
51500;DHT22;39101;53.478;6.158;2023-02-11T05:40:59;6.90;99.90
51500;DHT22;39101;53.478;6.158;2023-02-11T05:43:25;6.80;99.90
51500;DHT22;39101;53.478;6.158;2023-02-11T05:45:50;6.70;99.90
51500;DHT22;39101;53.478;6.158;2023-02-11T05:48:17;6.80;99.90
51500;DHT22;39101;53.478;6.158;2023-02-11T05:50:43;6.80;99.90
51500;DHT22;39101;53.478;6.158;2023-02-11T05:53:09;6.80;99.90
51500;DHT22;39101;53.478;6.158;2023-02-11T05:55:35;6.80;99.90
51500;DHT22;39101;53.478;6.158;2023-02-11T05:58:01;6.80;99.90
51500;DHT22;39101;53.478;6.158;2023-02-11T06:00:27;6.80;99.90
51500;DHT22;39101;53.478;6.158;2023-02-11T06:02:52;6.70;99.90
51500;DHT22;39101;53.478;6.158;2023-02-11T06:05:18;6.80;99.90
51500;DHT22;39101;53.478;6.158;2023-02-11T06:07:44;6.80;99.90
51500;DHT22;39101;53.478;6.158;2023-02-11T06:10:10;6.80;99.90
51500;DHT22;39101;53.478;6.158;2023-02-11T06:12:36;6.80;99.90
51500;DHT22;39101;53.478;6.158;2023-02-11T06:15:03;6.70;99.90
51500;DHT22;39101;53.478;6.158;2023-02-11T06:17:29;6.80;99.90
51500;DHT22;39101;53.478;6.158;2023-02-11T06:19:59;6.70;99.90
51500;DHT22;39101;53.478;6.158;2023-02-11T06:22:25;6.80;99.90
51500;DHT22;39101;53.478;6.158;2023-02-11T06:24:51;7.00;99.90
51500;DHT22;39101;53.478;6.158;2023-02-11T06:27:17;6.80;99.90
51500;DHT22;39101;53.478;6.158;2023-02-11T06:29:44;6.70;99.90
51500;DHT22;39101;53.478;6.158;2023-02-11T06:32:10;6.70;99.90
51500;DHT22;39101;53.478;6.158;2023-02-11T06:34:37;6.70;99.90
51500;DHT22;39101;53.478;6.158;2023-02-11T06:37:03;6.70;99.90
51500;DHT22;39101;53.478;6.158;2023-02-11T06:39:28;6.60;99.90
51500;DHT22;39101;53.478;6.158;2023-02-11T06:41:54;6.70;99.90
51500;DHT22;39101;53.478;6.158;2023-02-11T06:44:20;6.70;99.90
51500;DHT22;39101;53.478;6.158;2023-02-11T06:46:47;6.60;99.90
51500;DHT22;39101;53.478;6.158;2023-02-11T06:49:13;6.60;99.90
51500;DHT22;39101;53.478;6.158;2023-02-11T06:51:39;6.60;99.90
51500;DHT22;39101;53.478;6.158;2023-02-11T06:54:05;6.50;99.90
51500;DHT22;39101;53.478;6.158;2023-02-11T06:56:31;6.50;99.90
51500;DHT22;39101;53.478;6.158;2023-02-11T06:58:57;6.50;99.90
51500;DHT22;39101;53.478;6.158;2023-02-11T07:01:24;6.40;99.90
51500;DHT22;39101;53.478;6.158;2023-02-11T07:03:50;6.40;99.90
51500;DHT22;39101;53.478;6.158;2023-02-11T07:06:19;6.40;99.90
51500;DHT22;39101;53.478;6.158;2023-02-11T07:08:46;6.40;99.90
51500;DHT22;39101;53.478;6.158;2023-02-11T07:11:15;6.30;99.90
51500;DHT22;39101;53.478;6.158;2023-02-11T07:13:41;6.30;99.90
51500;DHT22;39101;53.478;6.158;2023-02-11T07:16:09;6.40;99.90
51500;DHT22;39101;53.478;6.158;2023-02-11T07:18:35;6.30;99.90
51500;DHT22;39101;53.478;6.158;2023-02-11T07:21:05;6.30;99.90
51500;DHT22;39101;53.478;6.158;2023-02-11T07:23:32;6.30;99.90
51500;DHT22;39101;53.478;6.158;2023-02-11T07:26:00;6.30;99.90
51500;DHT22;39101;53.478;6.158;2023-02-11T07:28:26;6.50;99.90
51500;DHT22;39101;53.478;6.158;2023-02-11T07:30:52;6.30;99.90
51500;DHT22;39101;53.478;6.158;2023-02-11T07:33:17;6.40;99.90
51500;DHT22;39101;53.478;6.158;2023-02-11T07:35:43;6.40;99.90
51500;DHT22;39101;53.478;6.158;2023-02-11T07:38:09;6.40;99.90
51500;DHT22;39101;53.478;6.158;2023-02-11T07:40:35;6.40;99.90
51500;DHT22;39101;53.478;6.158;2023-02-11T07:43:01;6.40;99.90
51500;DHT22;39101;53.478;6.158;2023-02-11T07:45:27;6.60;99.90
51500;DHT22;39101;53.478;6.158;2023-02-11T07:47:53;6.60;99.90
51500;DHT22;39101;53.478;6.158;2023-02-11T07:50:18;6.50;99.90
51500;DHT22;39101;53.478;6.158;2023-02-11T07:52:44;6.50;99.90
51500;DHT22;39101;53.478;6.158;2023-02-11T07:55:09;6.60;99.90
51500;DHT22;39101;53.478;6.158;2023-02-11T07:57:36;6.70;99.90
51500;DHT22;39101;53.478;6.158;2023-02-11T08:00:03;6.70;99.90
51500;DHT22;39101;53.478;6.158;2023-02-11T08:02:29;6.70;99.90
51500;DHT22;39101;53.478;6.158;2023-02-11T08:04:55;6.80;99.90
51500;DHT22;39101;53.478;6.158;2023-02-11T08:07:20;6.80;99.90
51500;DHT22;39101;53.478;6.158;2023-02-11T08:09:46;6.80;99.90
51500;DHT22;39101;53.478;6.158;2023-02-11T08:12:12;6.80;99.90
51500;DHT22;39101;53.478;6.158;2023-02-11T08:14:38;6.90;99.90
51500;DHT22;39101;53.478;6.158;2023-02-11T08:17:03;7.00;99.90
51500;DHT22;39101;53.478;6.158;2023-02-11T08:19:29;6.90;99.90
51500;DHT22;39101;53.478;6.158;2023-02-11T08:21:55;7.00;99.90
51500;DHT22;39101;53.478;6.158;2023-02-11T08:24:22;7.10;99.90
51500;DHT22;39101;53.478;6.158;2023-02-11T08:26:47;7.10;99.90
51500;DHT22;39101;53.478;6.158;2023-02-11T08:29:15;7.10;99.90
51500;DHT22;39101;53.478;6.158;2023-02-11T08:31:44;7.10;99.90
51500;DHT22;39101;53.478;6.158;2023-02-11T08:34:11;7.10;99.90
51500;DHT22;39101;53.478;6.158;2023-02-11T08:36:40;7.20;99.90
51500;DHT22;39101;53.478;6.158;2023-02-11T08:39:17;7.20;99.90
51500;DHT22;39101;53.478;6.158;2023-02-11T08:41:44;7.10;99.90
51500;DHT22;39101;53.478;6.158;2023-02-11T08:44:10;7.20;99.90
51500;DHT22;39101;53.478;6.158;2023-02-11T08:46:35;7.30;99.90
51500;DHT22;39101;53.478;6.158;2023-02-11T08:49:01;7.30;99.90
51500;DHT22;39101;53.478;6.158;2023-02-11T08:51:28;7.50;99.90
51500;DHT22;39101;53.478;6.158;2023-02-11T08:53:56;7.40;99.90
51500;DHT22;39101;53.478;6.158;2023-02-11T08:56:22;7.50;99.90
51500;DHT22;39101;53.478;6.158;2023-02-11T08:58:49;7.50;99.90
51500;DHT22;39101;53.478;6.158;2023-02-11T09:01:23;7.50;99.90
51500;DHT22;39101;53.478;6.158;2023-02-11T09:03:50;7.60;99.90
51500;DHT22;39101;53.478;6.158;2023-02-11T09:06:16;7.50;99.90
51500;DHT22;39101;53.478;6.158;2023-02-11T09:08:45;7.60;99.90
51500;DHT22;39101;53.478;6.158;2023-02-11T09:11:12;7.60;99.90
51500;DHT22;39101;53.478;6.158;2023-02-11T09:13:40;7.70;99.90
51500;DHT22;39101;53.478;6.158;2023-02-11T09:16:07;7.80;99.90
51500;DHT22;39101;53.478;6.158;2023-02-11T09:18:33;7.80;99.90
51500;DHT22;39101;53.478;6.158;2023-02-11T09:21:03;7.80;99.90
51500;DHT22;39101;53.478;6.158;2023-02-11T09:23:29;7.90;99.90
51500;DHT22;39101;53.478;6.158;2023-02-11T09:25:55;7.90;99.90
51500;DHT22;39101;53.478;6.158;2023-02-11T09:28:20;7.90;99.90
51500;DHT22;39101;53.478;6.158;2023-02-11T09:30:46;7.90;99.90
51500;DHT22;39101;53.478;6.158;2023-02-11T09:33:12;7.90;99.90
51500;DHT22;39101;53.478;6.158;2023-02-11T09:35:37;7.90;99.90
51500;DHT22;39101;53.478;6.158;2023-02-11T09:38:03;8.00;99.90
51500;DHT22;39101;53.478;6.158;2023-02-11T09:40:29;8.00;99.90
51500;DHT22;39101;53.478;6.158;2023-02-11T09:45:28;8.00;99.90
51500;DHT22;39101;53.478;6.158;2023-02-11T09:48:13;7.90;99.90
51500;DHT22;39101;53.478;6.158;2023-02-11T09:50:42;7.90;99.90
51500;DHT22;39101;53.478;6.158;2023-02-11T09:53:25;7.90;99.90
51500;DHT22;39101;53.478;6.158;2023-02-11T09:55:54;8.00;99.90
51500;DHT22;39101;53.478;6.158;2023-02-11T09:58:49;8.00;99.90
51500;DHT22;39101;53.478;6.158;2023-02-11T10:04:13;8.00;99.90
51500;DHT22;39101;53.478;6.158;2023-02-11T10:18:27;8.10;99.90
51500;DHT22;39101;53.478;6.158;2023-02-11T10:23:22;8.40;99.90
51500;DHT22;39101;53.478;6.158;2023-02-11T10:25:49;8.40;99.90
51500;DHT22;39101;53.478;6.158;2023-02-11T10:28:20;8.70;99.90
51500;DHT22;39101;53.478;6.158;2023-02-11T10:31:15;8.70;99.90
51500;DHT22;39101;53.478;6.158;2023-02-11T10:36:27;8.90;99.90
51500;DHT22;39101;53.478;6.158;2023-02-11T10:38:54;9.00;99.90
51500;DHT22;39101;53.478;6.158;2023-02-11T10:41:23;9.00;99.90
51500;DHT22;39101;53.478;6.158;2023-02-11T10:43:50;9.00;99.90
51500;DHT22;39101;53.478;6.158;2023-02-11T10:46:21;9.10;99.90
51500;DHT22;39101;53.478;6.158;2023-02-11T10:48:52;9.10;99.90
51500;DHT22;39101;53.478;6.158;2023-02-11T10:53:44;9.00;99.90
51500;DHT22;39101;53.478;6.158;2023-02-11T10:56:18;8.90;99.90
51500;DHT22;39101;53.478;6.158;2023-02-11T10:59:16;8.80;99.90
51500;DHT22;39101;53.478;6.158;2023-02-11T11:01:50;8.80;99.90
51500;DHT22;39101;53.478;6.158;2023-02-11T11:07:13;8.80;99.90
51500;DHT22;39101;53.478;6.158;2023-02-11T11:09:51;9.00;99.90
51500;DHT22;39101;53.478;6.158;2023-02-11T11:12:31;9.00;99.90
51500;DHT22;39101;53.478;6.158;2023-02-11T11:15:30;8.90;99.90
51500;DHT22;39101;53.478;6.158;2023-02-11T11:18:17;8.90;99.90
51500;DHT22;39101;53.478;6.158;2023-02-11T11:21:17;8.90;99.90
51500;DHT22;39101;53.478;6.158;2023-02-11T11:23:53;8.90;99.90
51500;DHT22;39101;53.478;6.158;2023-02-11T11:26:21;8.90;99.90
51500;DHT22;39101;53.478;6.158;2023-02-11T11:28:57;8.90;99.90
51500;DHT22;39101;53.478;6.158;2023-02-11T11:31:34;9.00;99.90
51500;DHT22;39101;53.478;6.158;2023-02-11T11:34:22;8.90;99.90
51500;DHT22;39101;53.478;6.158;2023-02-11T11:36:51;8.90;99.90
51500;DHT22;39101;53.478;6.158;2023-02-11T11:39:26;8.90;99.90
51500;DHT22;39101;53.478;6.158;2023-02-11T11:41:59;9.00;99.90
51500;DHT22;39101;53.478;6.158;2023-02-11T11:44:32;9.00;99.90
51500;DHT22;39101;53.478;6.158;2023-02-11T11:55:27;9.10;99.90
51500;DHT22;39101;53.478;6.158;2023-02-11T11:57:55;9.10;99.90
51500;DHT22;39101;53.478;6.158;2023-02-11T12:11:21;9.00;99.90
51500;DHT22;39101;53.478;6.158;2023-02-11T12:17:02;8.90;99.90
51500;DHT22;39101;53.478;6.158;2023-02-11T12:20:18;8.90;99.90
51500;DHT22;39101;53.478;6.158;2023-02-11T12:23:05;8.70;99.90
51500;DHT22;39101;53.478;6.158;2023-02-11T12:25:45;8.70;99.90
51500;DHT22;39101;53.478;6.158;2023-02-11T12:28:37;8.70;99.90
51500;DHT22;39101;53.478;6.158;2023-02-11T12:36:38;8.70;99.90
51500;DHT22;39101;53.478;6.158;2023-02-11T12:50:56;8.60;99.90
51500;DHT22;39101;53.478;6.158;2023-02-11T12:58:59;8.70;99.90
51500;DHT22;39101;53.478;6.158;2023-02-11T13:01:33;8.70;99.90
51500;DHT22;39101;53.478;6.158;2023-02-11T13:06:58;8.70;99.90
51500;DHT22;39101;53.478;6.158;2023-02-11T13:09:41;8.80;99.90
51500;DHT22;39101;53.478;6.158;2023-02-11T13:12:11;8.50;99.90
51500;DHT22;39101;53.478;6.158;2023-02-11T13:14:59;8.40;99.90
51500;DHT22;39101;53.478;6.158;2023-02-11T13:17:53;8.70;99.90
51500;DHT22;39101;53.478;6.158;2023-02-11T13:20:35;8.60;99.90
51500;DHT22;39101;53.478;6.158;2023-02-11T13:28:40;8.50;99.90
51500;DHT22;39101;53.478;6.158;2023-02-11T13:31:10;8.40;99.90
51500;DHT22;39101;53.478;6.158;2023-02-11T13:33:38;8.50;99.90
51500;DHT22;39101;53.478;6.158;2023-02-11T13:38:33;8.60;99.90
51500;DHT22;39101;53.478;6.158;2023-02-11T13:41:13;8.60;99.90
51500;DHT22;39101;53.478;6.158;2023-02-11T13:43:39;8.50;99.90
51500;DHT22;39101;53.478;6.158;2023-02-11T13:46:09;8.50;99.90
51500;DHT22;39101;53.478;6.158;2023-02-11T13:51:11;8.50;99.90
51500;DHT22;39101;53.478;6.158;2023-02-11T13:53:49;8.50;99.90
51500;DHT22;39101;53.478;6.158;2023-02-11T13:58:55;8.60;99.90
51500;DHT22;39101;53.478;6.158;2023-02-11T14:10:59;8.70;99.90
51500;DHT22;39101;53.478;6.158;2023-02-11T14:13:35;8.60;99.90
51500;DHT22;39101;53.478;6.158;2023-02-11T14:16:06;8.60;99.90
51500;DHT22;39101;53.478;6.158;2023-02-11T14:21:15;8.50;99.90
51500;DHT22;39101;53.478;6.158;2023-02-11T14:23:42;8.40;99.90
51500;DHT22;39101;53.478;6.158;2023-02-11T14:26:33;8.50;99.90
51500;DHT22;39101;53.478;6.158;2023-02-11T14:34:30;8.30;99.90
51500;DHT22;39101;53.478;6.158;2023-02-11T14:37:16;8.30;99.90
51500;DHT22;39101;53.478;6.158;2023-02-11T14:40:20;8.30;99.90
51500;DHT22;39101;53.478;6.158;2023-02-11T14:42:47;8.30;99.90
51500;DHT22;39101;53.478;6.158;2023-02-11T14:45:20;8.40;99.90
51500;DHT22;39101;53.478;6.158;2023-02-11T14:48:07;8.30;99.90
51500;DHT22;39101;53.478;6.158;2023-02-11T14:50:45;8.20;99.90
51500;DHT22;39101;53.478;6.158;2023-02-11T14:53:17;8.20;99.90
51500;DHT22;39101;53.478;6.158;2023-02-11T14:55:46;8.30;99.90
51500;DHT22;39101;53.478;6.158;2023-02-11T14:58:26;8.20;99.90
51500;DHT22;39101;53.478;6.158;2023-02-11T15:01:17;8.20;99.90
51500;DHT22;39101;53.478;6.158;2023-02-11T15:03:48;8.10;99.90
51500;DHT22;39101;53.478;6.158;2023-02-11T15:06:20;8.10;99.90
51500;DHT22;39101;53.478;6.158;2023-02-11T15:08:56;8.10;99.90
51500;DHT22;39101;53.478;6.158;2023-02-11T15:11:23;8.10;99.90
51500;DHT22;39101;53.478;6.158;2023-02-11T15:13:50;7.90;99.90
51500;DHT22;39101;53.478;6.158;2023-02-11T15:16:19;7.90;99.90
51500;DHT22;39101;53.478;6.158;2023-02-11T15:18:52;8.00;99.90
51500;DHT22;39101;53.478;6.158;2023-02-11T15:21:29;8.00;99.90
51500;DHT22;39101;53.478;6.158;2023-02-11T15:23:58;8.00;99.90
51500;DHT22;39101;53.478;6.158;2023-02-11T15:26:24;8.00;99.90
51500;DHT22;39101;53.478;6.158;2023-02-11T15:28:50;7.90;99.90
51500;DHT22;39101;53.478;6.158;2023-02-11T15:31:23;7.90;99.90
51500;DHT22;39101;53.478;6.158;2023-02-11T15:33:50;7.90;99.90
51500;DHT22;39101;53.478;6.158;2023-02-11T15:36:19;7.90;99.90
51500;DHT22;39101;53.478;6.158;2023-02-11T15:38:45;8.10;99.90
51500;DHT22;39101;53.478;6.158;2023-02-11T15:41:37;8.00;99.90
51500;DHT22;39101;53.478;6.158;2023-02-11T15:44:03;8.10;99.90
51500;DHT22;39101;53.478;6.158;2023-02-11T15:46:36;8.10;99.90
51500;DHT22;39101;53.478;6.158;2023-02-11T15:49:03;8.10;99.90
51500;DHT22;39101;53.478;6.158;2023-02-11T15:51:32;8.20;99.90
51500;DHT22;39101;53.478;6.158;2023-02-11T15:54:02;8.10;99.90
51500;DHT22;39101;53.478;6.158;2023-02-11T15:56:39;8.10;99.90
51500;DHT22;39101;53.478;6.158;2023-02-11T16:01:37;8.10;99.90
51500;DHT22;39101;53.478;6.158;2023-02-11T16:04:04;8.10;99.90
51500;DHT22;39101;53.478;6.158;2023-02-11T16:06:37;7.90;99.90
51500;DHT22;39101;53.478;6.158;2023-02-11T16:11:35;7.90;99.90
51500;DHT22;39101;53.478;6.158;2023-02-11T16:17:06;7.80;99.90
51500;DHT22;39101;53.478;6.158;2023-02-11T16:19:33;7.80;99.90
51500;DHT22;39101;53.478;6.158;2023-02-11T16:22:05;7.70;99.90
51500;DHT22;39101;53.478;6.158;2023-02-11T16:24:35;7.60;99.90
51500;DHT22;39101;53.478;6.158;2023-02-11T16:27:15;7.50;99.90
51500;DHT22;39101;53.478;6.158;2023-02-11T16:29:45;7.40;99.90
51500;DHT22;39101;53.478;6.158;2023-02-11T16:32:20;7.50;99.90
51500;DHT22;39101;53.478;6.158;2023-02-11T16:34:46;7.40;99.90
51500;DHT22;39101;53.478;6.158;2023-02-11T16:37:12;7.40;99.90
51500;DHT22;39101;53.478;6.158;2023-02-11T16:39:38;7.40;99.90
51500;DHT22;39101;53.478;6.158;2023-02-11T16:42:03;7.40;99.90
51500;DHT22;39101;53.478;6.158;2023-02-11T16:44:31;7.30;99.90
51500;DHT22;39101;53.478;6.158;2023-02-11T16:46:58;7.20;99.90
51500;DHT22;39101;53.478;6.158;2023-02-11T16:49:33;7.30;99.90
51500;DHT22;39101;53.478;6.158;2023-02-11T16:52:01;7.20;99.90
51500;DHT22;39101;53.478;6.158;2023-02-11T16:54:29;7.20;99.90
51500;DHT22;39101;53.478;6.158;2023-02-11T16:56:56;7.20;99.90
51500;DHT22;39101;53.478;6.158;2023-02-11T16:59:22;7.20;99.90
51500;DHT22;39101;53.478;6.158;2023-02-11T17:01:49;7.10;99.90
51500;DHT22;39101;53.478;6.158;2023-02-11T17:04:22;7.10;99.90
51500;DHT22;39101;53.478;6.158;2023-02-11T17:06:49;7.00;99.90
51500;DHT22;39101;53.478;6.158;2023-02-11T17:09:20;7.00;99.90
51500;DHT22;39101;53.478;6.158;2023-02-11T17:11:46;7.00;99.90
51500;DHT22;39101;53.478;6.158;2023-02-11T17:14:12;7.00;99.90
51500;DHT22;39101;53.478;6.158;2023-02-11T17:16:38;6.90;99.90
51500;DHT22;39101;53.478;6.158;2023-02-11T17:19:03;6.80;99.90
51500;DHT22;39101;53.478;6.158;2023-02-11T17:21:29;6.90;99.90
51500;DHT22;39101;53.478;6.158;2023-02-11T17:23:57;6.80;99.90
51500;DHT22;39101;53.478;6.158;2023-02-11T17:26:22;6.80;99.90
51500;DHT22;39101;53.478;6.158;2023-02-11T17:28:48;6.70;99.90
51500;DHT22;39101;53.478;6.158;2023-02-11T17:31:14;6.70;99.90
51500;DHT22;39101;53.478;6.158;2023-02-11T17:33:39;6.80;99.90
51500;DHT22;39101;53.478;6.158;2023-02-11T17:36:07;6.70;99.90
51500;DHT22;39101;53.478;6.158;2023-02-11T17:38:34;6.70;99.90
51500;DHT22;39101;53.478;6.158;2023-02-11T17:41:01;6.60;99.90
51500;DHT22;39101;53.478;6.158;2023-02-11T17:43:27;6.70;99.90
51500;DHT22;39101;53.478;6.158;2023-02-11T17:45:52;6.60;99.90
51500;DHT22;39101;53.478;6.158;2023-02-11T17:48:18;6.60;99.90
51500;DHT22;39101;53.478;6.158;2023-02-11T17:50:44;6.60;99.90
51500;DHT22;39101;53.478;6.158;2023-02-11T17:53:10;6.70;99.90
51500;DHT22;39101;53.478;6.158;2023-02-11T17:55:35;6.70;99.90
51500;DHT22;39101;53.478;6.158;2023-02-11T17:58:03;6.60;99.90
51500;DHT22;39101;53.478;6.158;2023-02-11T18:00:29;6.60;99.90
51500;DHT22;39101;53.478;6.158;2023-02-11T18:02:55;6.60;99.90
51500;DHT22;39101;53.478;6.158;2023-02-11T18:05:22;6.60;99.90
51500;DHT22;39101;53.478;6.158;2023-02-11T18:07:51;6.60;99.90
51500;DHT22;39101;53.478;6.158;2023-02-11T18:10:17;6.50;99.90
51500;DHT22;39101;53.478;6.158;2023-02-11T18:12:43;6.40;99.90
51500;DHT22;39101;53.478;6.158;2023-02-11T18:15:09;6.40;99.90
51500;DHT22;39101;53.478;6.158;2023-02-11T18:17:36;6.40;99.90
51500;DHT22;39101;53.478;6.158;2023-02-11T18:20:02;6.40;99.90
51500;DHT22;39101;53.478;6.158;2023-02-11T18:22:28;6.40;99.90
51500;DHT22;39101;53.478;6.158;2023-02-11T18:24:58;6.30;99.90
51500;DHT22;39101;53.478;6.158;2023-02-11T18:27:23;6.30;99.90